Time;durP1;ratioP1;P1;durP2;ratioP2;P2;SDS_P1;SDS_P2;PMS_P1;PMS_P2;Temp;Humidity;BMP_temperature;BMP_pressure;BME280_temperature;BME280_humidity;BME280_pressure;Samples;Min_cycle;Max_cycle;Signal;HPM_P1;HPM_P2
2022/08/10 00:00:43;;;;;;;7.90;3.30;;;;;;;13.28;76.83;97582.39;108524;1268;22562;-76
2022/08/10 00:03:14;;;;;;;3.30;2.70;;;;;;;13.19;77.26;97588.54;108515;1268;22517;-76
2022/08/10 00:05:45;;;;;;;5.40;2.80;;;;;;;13.27;77.39;97585.39;108466;1268;22483;-76
2022/08/10 00:08:16;;;;;;;6.10;2.70;;;;;;;13.20;77.39;97585.27;108449;1267;33411;-76
2022/08/10 00:10:48;;;;;;;5.50;3.10;;;;;;;13.14;77.55;97588.95;108497;1268;22545;-76
2022/08/10 00:13:19;;;;;;;3.20;2.30;;;;;;;13.22;77.88;97593.00;108419;1268;22461;-76
2022/08/10 00:15:51;;;;;;;10.00;3.60;;;;;;;13.21;77.85;97586.66;108500;1268;23831;-76
2022/08/10 00:18:22;;;;;;;5.40;3.10;;;;;;;13.13;77.95;97589.38;108402;1268;23288;-76
2022/08/10 00:20:53;;;;;;;4.20;2.70;;;;;;;13.16;78.40;97589.38;108458;1268;25419;-76
2022/08/10 00:23:24;;;;;;;3.80;2.80;;;;;;;13.16;78.47;97590.22;108464;1268;22668;-76
2022/08/10 00:25:55;;;;;;;4.90;2.90;;;;;;;13.17;78.41;97591.55;108485;1268;22565;-77
2022/08/10 00:28:27;;;;;;;4.90;3.10;;;;;;;13.23;78.29;97586.73;108335;1268;39529;-76
2022/08/10 00:30:58;;;;;;;6.30;3.10;;;;;;;13.30;78.37;97584.94;108527;1267;22541;-76
2022/08/10 00:33:29;;;;;;;5.30;3.30;;;;;;;13.33;78.29;97586.89;108522;1268;25921;-76
2022/08/10 00:36:00;;;;;;;5.20;3.40;;;;;;;13.31;78.25;97589.14;108474;1268;22545;-76
2022/08/10 00:38:33;;;;;;;4.60;2.90;;;;;;;13.30;78.23;97589.14;108393;1266;44270;-76
2022/08/10 00:41:09;;;;;;;4.10;2.80;;;;;;;13.34;78.13;97588.01;108438;1268;22568;-76
2022/08/10 00:43:40;;;;;;;4.10;2.70;;;;;;;13.35;78.26;97584.27;108508;1268;22615;-76
2022/08/10 00:46:11;;;;;;;3.60;2.60;;;;;;;13.22;78.13;97583.62;108439;1268;22598;-76
2022/08/10 00:48:42;;;;;;;3.30;2.60;;;;;;;13.05;78.09;97584.81;108434;1268;30011;-76
2022/08/10 00:51:14;;;;;;;4.70;2.80;;;;;;;12.93;78.55;97582.86;108445;1268;23357;-76
2022/08/10 00:53:45;;;;;;;5.90;2.80;;;;;;;12.98;78.88;97584.73;108428;1267;25251;-76
2022/08/10 00:56:17;;;;;;;5.30;2.40;;;;;;;13.06;78.75;97587.21;108512;1268;22559;-76
2022/08/10 00:58:48;;;;;;;4.40;2.80;;;;;;;13.15;78.56;97585.23;108467;1268;31912;-76
2022/08/10 01:01:22;;;;;;;7.10;3.20;;;;;;;13.22;78.50;97582.61;108436;1268;24198;-76
2022/08/10 01:03:53;;;;;;;5.20;2.70;;;;;;;13.26;78.47;97582.67;108537;1268;25923;-76
2022/08/10 01:06:30;;;;;;;5.10;3.00;;;;;;;13.16;78.18;97580.05;108521;1268;22667;-76
2022/08/10 01:09:07;;;;;;;4.80;3.10;;;;;;;12.86;78.18;97577.08;108444;1268;35314;-76
2022/08/10 01:11:49;;;;;;;6.90;2.60;;;;;;;12.58;78.84;97569.92;108434;1268;22562;-76
2022/08/10 01:14:28;;;;;;;3.40;2.80;;;;;;;12.49;79.71;97573.11;108497;1267;22610;-76
2022/08/10 01:17:06;;;;;;;3.90;2.70;;;;;;;12.53;79.88;97573.98;108515;1268;22719;-76
2022/08/10 01:19:52;;;;;;;3.70;2.60;;;;;;;12.63;79.94;97577.63;108454;1268;24259;-76
2022/08/10 01:22:49;;;;;;;5.30;2.50;;;;;;;12.73;79.97;97577.47;108515;1268;22461;-76
2022/08/10 01:25:55;;;;;;;4.10;2.60;;;;;;;12.82;79.76;97581.51;108439;1268;22554;-76
2022/08/10 01:28:37;;;;;;;5.00;2.80;;;;;;;12.86;79.33;97581.34;108248;1268;29529;-76
2022/08/10 01:31:12;;;;;;;5.20;2.70;;;;;;;12.91;79.34;97580.41;108415;1268;22668;-76
2022/08/10 01:33:48;;;;;;;3.50;3.00;;;;;;;12.74;79.24;97576.83;108408;1268;22516;-76
2022/08/10 01:36:27;;;;;;;5.10;2.90;;;;;;;12.49;79.25;97578.55;108348;1269;23713;-76
2022/08/10 01:39:01;;;;;;;4.20;3.10;;;;;;;12.27;79.52;97576.41;108402;1268;40016;-76
2022/08/10 01:41:42;;;;;;;4.80;2.90;;;;;;;12.10;80.35;97575.11;108473;1266;22538;-76
2022/08/10 01:44:15;;;;;;;5.70;3.50;;;;;;;12.09;81.22;97574.36;108544;1268;22517;-76
2022/08/10 01:46:50;;;;;;;6.50;3.00;;;;;;;12.14;81.59;97574.60;108503;1268;22538;-76
2022/08/10 01:49:27;;;;;;;7.80;3.00;;;;;;;12.28;81.98;97577.41;108388;1268;28972;-76
2022/08/10 01:52:02;;;;;;;4.10;2.70;;;;;;;12.43;82.13;97575.89;108519;1268;22629;-76
2022/08/10 01:54:33;;;;;;;5.70;3.00;;;;;;;12.53;81.85;97577.64;108467;1268;22545;-76
2022/08/10 01:57:07;;;;;;;6.30;2.80;;;;;;;12.45;81.39;97574.82;108515;1268;22585;-76
2022/08/10 01:59:42;;;;;;;5.50;3.40;;;;;;;12.31;81.39;97572.27;108417;1268;23319;-76
2022/08/10 02:02:15;;;;;;;3.40;2.70;;;;;;;12.25;81.92;97574.50;108525;1266;25395;-76
2022/08/10 02:04:49;;;;;;;5.80;3.30;;;;;;;12.27;82.43;97569.66;108532;1268;22563;-76
2022/08/10 02:07:24;;;;;;;4.80;3.30;;;;;;;12.31;82.82;97570.24;108412;1268;22602;-76
2022/08/10 02:09:59;;;;;;;5.90;2.70;;;;;;;12.34;82.87;97569.92;108487;1268;25377;-76
2022/08/10 02:12:32;;;;;;;4.00;3.00;;;;;;;12.37;82.76;97566.41;108497;1268;24152;-76
2022/08/10 02:15:07;;;;;;;5.00;2.90;;;;;;;12.40;82.60;97566.80;108435;1268;24380;-76
2022/08/10 02:17:41;;;;;;;8.70;3.40;;;;;;;12.43;82.24;97570.25;108504;1268;22476;-76
2022/08/10 02:20:18;;;;;;;4.90;3.00;;;;;;;12.27;81.72;97571.10;108525;1268;22691;-76
2022/08/10 02:22:53;;;;;;;5.30;3.40;;;;;;;12.06;81.84;97564.86;108423;1268;22481;-76
2022/08/10 02:25:26;;;;;;;5.80;3.20;;;;;;;11.93;82.21;97569.73;108526;1268;22900;-76
2022/08/10 02:27:58;;;;;;;4.80;3.00;;;;;;;11.79;82.60;97570.48;108408;1268;26232;-76
2022/08/10 02:30:31;;;;;;;6.20;3.10;;;;;;;11.75;83.33;97570.13;108535;1268;22619;-76
2022/08/10 02:33:03;;;;;;;5.80;3.30;;;;;;;11.81;83.87;97575.48;108485;1268;23944;-76
2022/08/10 02:35:36;;;;;;;5.90;3.90;;;;;;;11.89;84.12;97575.98;108541;1268;22634;-76
2022/08/10 02:38:10;;;;;;;6.70;3.40;;;;;;;11.98;84.29;97570.16;108438;1268;39541;-76
2022/08/10 02:40:47;;;;;;;7.20;3.40;;;;;;;12.01;84.21;97572.52;108518;1268;22546;-76
2022/08/10 02:43:26;;;;;;;5.40;3.70;;;;;;;12.00;84.20;97574.15;108516;1268;23853;-76
2022/08/10 02:46:03;;;;;;;8.00;3.40;;;;;;;11.99;84.26;97577.45;108508;1268;22551;-76
2022/08/10 02:48:42;;;;;;;4.90;3.10;;;;;;;11.86;83.90;97577.67;108418;1267;31821;-76
2022/08/10 02:51:18;;;;;;;5.90;3.80;;;;;;;11.73;84.16;97580.43;108458;1268;22608;-76
2022/08/10 02:53:57;;;;;;;7.40;3.20;;;;;;;11.66;84.63;97578.48;108496;1268;22599;-76
2022/08/10 02:56:36;;;;;;;5.20;3.60;;;;;;;11.61;84.89;97577.30;108413;1268;22523;-76
2022/08/10 02:59:10;;;;;;;4.90;3.60;;;;;;;11.62;85.56;97575.66;108356;1268;26281;-76
2022/08/10 03:01:45;;;;;;;8.40;3.60;;;;;;;11.69;85.78;97578.77;108405;1268;22469;-76
2022/08/10 03:04:23;;;;;;;6.80;4.20;;;;;;;11.77;85.91;97577.95;108483;1268;23714;-76
2022/08/10 03:06:59;;;;;;;6.10;4.10;;;;;;;11.87;85.88;97582.56;108452;1267;22694;-76
2022/08/10 03:09:32;;;;;;;6.40;3.30;;;;;;;11.98;85.48;97581.80;108449;1268;33192;-76
2022/08/10 03:12:07;;;;;;;4.20;3.30;;;;;;;12.06;85.09;97583.45;108493;1268;22668;-76
2022/08/10 03:14:40;;;;;;;5.60;3.40;;;;;;;12.08;84.58;97584.56;108414;1268;23255;-76
2022/08/10 03:17:13;;;;;;;4.10;3.20;;;;;;;12.09;84.15;97587.86;108411;1268;22565;-76
2022/08/10 03:19:45;;;;;;;6.00;3.40;;;;;;;12.10;84.09;97589.42;108418;1268;31409;-76
2022/08/10 03:22:19;;;;;;;5.60;3.80;;;;;;;12.08;84.40;97594.61;108405;1268;24655;-76
2022/08/10 03:24:53;;;;;;;5.90;4.20;;;;;;;12.07;84.58;97596.31;108398;1268;22532;-76
2022/08/10 03:27:25;;;;;;;6.20;3.70;;;;;;;12.10;84.56;97594.14;108534;1268;24228;-76
2022/08/10 03:29:57;;;;;;;8.40;3.80;;;;;;;12.15;84.56;97594.16;108417;1268;43631;-76
2022/08/10 03:32:30;;;;;;;5.90;3.00;;;;;;;12.21;84.53;97602.18;108423;1267;22529;-76
2022/08/10 03:35:02;;;;;;;5.80;3.00;;;;;;;12.27;84.16;97603.96;108421;1268;23766;-76
2022/08/10 03:37:33;;;;;;;7.20;3.30;;;;;;;12.28;83.97;97609.55;108510;1268;22822;-76
2022/08/10 03:40:06;;;;;;;4.20;3.30;;;;;;;12.31;83.88;97613.21;108419;1268;33141;-76
2022/08/10 03:42:38;;;;;;;5.70;3.40;;;;;;;12.35;83.66;97615.98;108543;1268;24351;-76
2022/08/10 03:45:11;;;;;;;6.70;3.80;;;;;;;12.23;83.50;97614.73;108474;1268;23835;-76
2022/08/10 03:47:44;;;;;;;5.80;3.60;;;;;;;12.10;83.55;97624.83;108411;1268;33899;-76
2022/08/10 03:50:16;;;;;;;3.60;3.20;;;;;;;12.11;83.93;97624.45;108530;1268;22532;-76
2022/08/10 03:52:47;;;;;;;5.00;3.40;;;;;;;12.21;83.88;97623.52;108397;1268;24159;-76
2022/08/10 03:55:20;;;;;;;4.10;2.90;;;;;;;12.33;83.79;97623.53;108527;1268;22549;-76
2022/08/10 03:57:51;;;;;;;4.50;3.10;;;;;;;12.42;83.56;97624.19;108465;1268;26601;-76
2022/08/10 04:00:25;;;;;;;5.60;3.70;;;;;;;12.48;83.68;97626.15;108391;1268;22520;-76
2022/08/10 04:03:01;;;;;;;5.60;3.40;;;;;;;12.57;83.87;97628.88;108521;1268;22476;-76
2022/08/10 04:05:33;;;;;;;5.40;3.50;;;;;;;12.69;83.74;97630.94;107441;1268;1245173;-76
2022/08/10 04:08:05;;;;;;;7.20;3.70;;;;;;;12.79;83.61;97632.86;108439;1268;26648;-76
2022/08/10 04:10:36;;;;;;;5.90;3.20;;;;;;;12.91;83.59;97633.38;108444;1268;22534;-76
2022/08/10 04:13:10;;;;;;;4.20;3.20;;;;;;;12.96;83.39;97636.69;108413;1267;23221;-76
2022/08/10 04:15:41;;;;;;;7.20;3.40;;;;;;;13.01;83.40;97635.35;108550;1268;25392;-76
2022/08/10 04:18:13;;;;;;;5.60;3.80;;;;;;;13.04;83.21;97639.98;108469;1268;30311;-76
2022/08/10 04:20:49;;;;;;;5.60;3.50;;;;;;;12.93;83.28;97640.56;108491;1268;22571;-76
2022/08/10 04:23:24;;;;;;;6.20;3.30;;;;;;;12.90;83.64;97644.30;108489;1268;22649;-76
2022/08/10 04:25:56;;;;;;;3.80;3.50;;;;;;;12.94;84.05;97645.89;108443;1268;22553;-76
2022/08/10 04:28:28;;;;;;;5.40;3.90;;;;;;;13.04;84.15;97643.80;108452;1268;24778;-76
2022/08/10 04:31:01;;;;;;;5.40;3.80;;;;;;;13.17;84.41;97639.27;108486;1268;22556;-76
2022/08/10 04:33:34;;;;;;;5.40;3.60;;;;;;;13.30;84.49;97640.39;108489;1268;22605;-76
2022/08/10 04:36:08;;;;;;;6.60;3.80;;;;;;;13.54;84.97;97644.73;108427;1268;22596;-76
2022/08/10 04:38:40;;;;;;;4.40;3.50;;;;;;;13.78;84.42;97644.06;108453;1268;41688;-76
2022/08/10 04:41:15;;;;;;;5.00;3.70;;;;;;;13.93;83.96;97642.29;108494;1268;25232;-76
2022/08/10 04:43:46;;;;;;;5.90;3.80;;;;;;;14.18;84.08;97645.10;108505;1268;22500;-76
2022/08/10 04:46:20;;;;;;;6.90;4.00;;;;;;;14.99;84.95;97642.41;108498;1266;25267;-76
2022/08/10 04:48:51;;;;;;;5.00;3.60;;;;;;;17.03;86.92;97641.05;108336;1268;31883;-76
2022/08/10 04:51:22;;;;;;;8.70;3.20;;;;;;;19.16;83.36;97635.38;108403;1268;22535;-76
2022/08/10 04:53:53;;;;;;;5.20;3.10;;;;;;;20.73;78.24;97634.79;108410;1268;22726;-76
2022/08/10 04:56:24;;;;;;;6.60;3.60;;;;;;;21.85;74.79;97634.67;108506;1268;22805;-76
2022/08/10 04:58:56;;;;;;;5.50;3.60;;;;;;;23.17;72.63;97636.42;108335;1268;36410;-76
2022/08/10 05:01:27;;;;;;;5.50;3.10;;;;;;;24.80;70.78;97635.80;108413;1268;22649;-76
2022/08/10 05:03:58;;;;;;;4.50;2.90;;;;;;;26.27;67.64;97637.98;108535;1266;22760;-77
2022/08/10 05:06:29;;;;;;;5.80;3.10;;;;;;;27.13;62.80;97643.09;108558;1268;25242;-76
2022/08/10 05:09:00;;;;;;;5.90;3.00;;;;;;;27.40;59.58;97645.20;108444;1266;39442;-76
2022/08/10 05:11:32;;;;;;;6.40;3.30;;;;;;;27.78;56.71;97646.80;108542;1268;25448;-76
2022/08/10 05:14:03;;;;;;;6.60;3.50;;;;;;;28.23;55.11;97649.10;108552;1268;23633;-76
2022/08/10 05:16:34;;;;;;;6.20;3.90;;;;;;;28.82;53.30;97647.09;108529;1268;22543;-76
2022/08/10 05:19:05;;;;;;;7.10;3.40;;;;;;;29.51;52.07;97649.59;108340;1268;24904;-76
2022/08/10 05:21:37;;;;;;;10.40;3.60;;;;;;;30.55;50.67;97645.66;108528;1268;22562;-76
2022/08/10 05:24:09;;;;;;;5.20;3.60;;;;;;;31.42;48.65;97649.30;108484;1268;25188;-76
2022/08/10 05:26:40;;;;;;;6.50;3.50;;;;;;;32.34;46.70;97642.84;108541;1268;23315;-76
2022/08/10 05:29:12;;;;;;;7.20;3.50;;;;;;;33.12;45.26;97645.13;108283;1268;29099;-76
2022/08/10 05:31:44;;;;;;;7.70;3.80;;;;;;;33.65;43.31;97639.27;108533;1268;22595;-76
2022/08/10 05:34:16;;;;;;;5.00;3.60;;;;;;;34.10;41.84;97638.03;108510;1268;22698;-77
2022/08/10 05:36:48;;;;;;;5.00;3.30;;;;;;;34.72;41.19;97639.16;108547;1266;23836;-77
2022/08/10 05:39:22;;;;;;;6.40;3.50;;;;;;;35.04;39.38;97636.08;108477;1268;26661;-77
2022/08/10 05:41:55;;;;;;;8.20;3.70;;;;;;;35.26;38.44;97637.66;108561;1268;22561;-77
2022/08/10 05:44:27;;;;;;;5.10;3.10;;;;;;;35.56;37.84;97639.58;108351;1268;22517;-77
2022/08/10 05:47:00;;;;;;;6.70;3.10;;;;;;;35.76;36.42;97637.59;108550;1267;22581;-77
2022/08/10 05:49:32;;;;;;;6.20;3.60;;;;;;;35.48;34.94;97635.84;108434;1268;47991;-77
2022/08/10 05:52:04;;;;;;;6.00;3.30;;;;;;;35.26;35.40;97636.55;108386;1268;22523;-76
2022/08/10 05:54:35;;;;;;;5.20;3.60;;;;;;;35.36;35.05;97637.03;108563;1268;22674;-77
2022/08/10 05:57:07;;;;;;;6.50;3.50;;;;;;;35.50;33.99;97640.48;108505;1268;23052;-77
2022/08/10 05:59:41;;;;;;;8.10;3.50;;;;;;;35.62;33.68;97639.87;108451;1268;33945;-77
2022/08/10 06:02:19;;;;;;;8.10;3.80;;;;;;;35.49;32.60;97643.86;108555;1268;22657;-77
2022/08/10 06:04:52;;;;;;;7.30;3.70;;;;;;;35.21;32.96;97643.95;108515;1268;22889;-77
2022/08/10 06:07:27;;;;;;;5.70;3.30;;;;;;;35.69;32.98;97644.74;108410;1268;22682;-77
2022/08/10 06:10:00;;;;;;;6.30;3.60;;;;;;;36.61;32.36;97649.78;108447;1267;31080;-77
2022/08/10 06:12:34;;;;;;;5.70;3.30;;;;;;;37.48;32.00;97643.02;108387;1268;22661;-77
2022/08/10 06:15:06;;;;;;;5.40;3.40;;;;;;;37.88;30.48;97638.73;108559;1268;22562;-77
2022/08/10 06:17:39;;;;;;;7.60;3.20;;;;;;;37.46;30.15;97643.77;108469;1268;25392;-77
2022/08/10 06:20:13;;;;;;;6.00;3.20;;;;;;;38.20;30.38;97644.31;108432;1267;23902;-77
2022/08/10 06:22:45;;;;;;;7.20;3.30;;;;;;;39.09;29.83;97647.26;108544;1267;22751;-77
2022/08/10 06:25:17;;;;;;;10.10;3.50;;;;;;;39.99;29.09;97650.36;108523;1268;22532;-77
2022/08/10 06:27:50;;;;;;;6.40;3.70;;;;;;;40.37;27.94;97651.98;108359;1268;31605;-77
2022/08/10 06:30:23;;;;;;;7.50;3.60;;;;;;;40.52;27.56;97652.73;108550;1267;22573;-77
2022/08/10 06:32:58;;;;;;;8.50;3.00;;;;;;;40.51;27.15;97656.16;108436;1267;22592;-77
2022/08/10 06:35:33;;;;;;;7.60;3.10;;;;;;;40.55;26.68;97655.95;108534;1267;23952;-77
2022/08/10 06:38:07;;;;;;;5.20;3.30;;;;;;;39.86;26.02;97648.65;108430;1268;31483;-77
2022/08/10 06:40:43;;;;;;;5.30;2.90;;;;;;;38.82;25.28;97647.66;108509;1267;23258;-77
2022/08/10 06:43:22;;;;;;;6.70;3.20;;;;;;;38.61;27.37;97650.46;108393;1267;24790;-77
2022/08/10 06:46:02;;;;;;;5.60;2.80;;;;;;;39.92;27.03;97650.13;108575;1268;22999;-77
2022/08/10 06:48:36;;;;;;;4.40;2.60;;;;;;;40.50;26.25;97651.67;108480;1268;32770;-77
2022/08/10 06:51:14;;;;;;;4.10;2.80;;;;;;;40.31;24.72;97644.88;108531;1268;22532;-77
2022/08/10 06:53:50;;;;;;;4.90;2.90;;;;;;;38.76;23.95;97643.06;108504;1267;24021;-77
2022/08/10 06:56:24;;;;;;;6.20;3.00;;;;;;;37.02;24.91;97643.48;108533;1267;22520;-77
2022/08/10 06:59:04;;;;;;;4.60;2.90;;;;;;;36.22;25.76;97646.43;108443;1267;33416;-78
2022/08/10 07:01:39;;;;;;;6.70;3.40;;;;;;;35.77;26.54;97644.36;108534;1268;22510;-77
2022/08/10 07:04:22;;;;;;;4.60;2.60;;;;;;;37.13;27.93;97642.33;108432;1267;24207;-77
2022/08/10 07:06:58;;;;;;;4.30;2.70;;;;;;;39.07;26.91;97643.18;108542;1268;22532;-77
2022/08/10 07:09:30;;;;;;;3.90;2.70;;;;;;;39.97;25.66;97646.38;108421;1267;42169;-77
2022/08/10 07:12:06;;;;;;;4.40;2.40;;;;;;;40.71;25.30;97649.33;108520;1267;22796;-77
2022/08/10 07:14:40;;;;;;;9.20;2.70;;;;;;;40.66;23.38;97643.38;108522;1268;22531;-77
2022/08/10 07:17:14;;;;;;;3.40;2.50;;;;;;;39.90;23.90;97646.04;108534;1268;22485;-77
2022/08/10 07:19:48;;;;;;;6.00;2.60;;;;;;;39.56;23.40;97643.42;108316;1268;25368;-77
2022/08/10 07:22:25;;;;;;;4.40;2.00;;;;;;;40.00;24.89;97648.38;108518;1268;22541;-77
2022/08/10 07:24:58;;;;;;;3.50;2.20;;;;;;;40.73;24.38;97648.45;108423;1268;22582;-78
2022/08/10 07:27:31;;;;;;;7.20;2.20;;;;;;;41.94;24.14;97644.88;108527;1268;23773;-77
2022/08/10 07:30:04;;;;;;;3.80;2.20;;;;;;;43.04;23.28;97646.96;108307;1268;29281;-77
2022/08/10 07:32:36;;;;;;;4.30;2.30;;;;;;;42.73;20.88;97646.77;108499;1267;23611;-77
2022/08/10 07:35:11;;;;;;;4.70;2.70;;;;;;;40.53;20.88;97647.59;108396;1268;22532;-77
2022/08/10 07:37:45;;;;;;;6.40;2.70;;;;;;;38.96;22.38;97645.68;108495;1268;24776;-77
2022/08/10 07:40:19;;;;;;;2.80;1.90;;;;;;;38.30;23.37;97645.73;108509;1268;23707;-77
2022/08/10 07:42:56;;;;;;;2.60;2.30;;;;;;;38.41;22.68;97647.24;108419;1268;22540;-77
2022/08/10 07:45:30;;;;;;;4.50;2.20;;;;;;;37.62;23.53;97646.48;108364;1268;22879;-77
2022/08/10 07:48:09;;;;;;;5.10;2.60;;;;;;;37.32;24.12;97648.30;108419;1268;25243;-77
2022/08/10 07:50:43;;;;;;;2.40;2.10;;;;;;;38.61;24.30;97644.63;108382;1268;22527;-77
2022/08/10 07:53:17;;;;;;;4.80;2.60;;;;;;;38.43;22.72;97643.05;108530;1267;22551;-78
2022/08/10 07:55:49;;;;;;;2.80;2.20;;;;;;;38.56;24.28;97641.89;108398;1267;25402;-78
2022/08/10 07:58:22;;;;;;;2.80;2.20;;;;;;;40.19;24.35;97647.25;108401;1268;29846;-78
2022/08/10 08:00:54;;;;;;;5.30;2.40;;;;;;;41.68;22.83;97650.29;108505;1268;22538;-78
2022/08/10 08:03:28;;;;;;;3.00;2.00;;;;;;;42.41;22.53;97645.35;108462;1268;22927;-78
2022/08/10 08:06:02;;;;;;;4.10;2.30;;;;;;;42.60;20.47;97646.17;108489;1268;23804;-78
2022/08/10 08:08:35;;;;;;;2.90;2.30;;;;;;;40.90;20.32;97650.14;108439;1268;24766;-78
2022/08/10 08:11:07;;;;;;;3.20;2.30;;;;;;;40.21;22.70;97644.83;108385;1268;22710;-78
2022/08/10 08:13:40;;;;;;;3.40;2.10;;;;;;;41.91;22.69;97646.34;108398;1268;23495;-78
2022/08/10 08:16:14;;;;;;;3.50;2.40;;;;;;;42.81;21.71;97645.02;108386;1268;22828;-78
2022/08/10 08:18:47;;;;;;;2.70;2.20;;;;;;;42.87;21.68;97644.88;108377;1267;24712;-78
2022/08/10 08:21:19;;;;;;;4.70;2.00;;;;;;;43.69;21.37;97644.27;108399;1268;22538;-78
2022/08/10 08:23:51;;;;;;;3.10;2.00;;;;;;;44.27;21.26;97649.79;108445;1268;22559;-78
2022/08/10 08:26:24;;;;;;;3.60;1.90;;;;;;;45.07;20.37;97650.16;108492;1267;22647;-78
2022/08/10 08:28:57;;;;;;;3.30;2.10;;;;;;;45.09;19.89;97646.70;108410;1268;43960;-78
2022/08/10 08:31:29;;;;;;;2.30;1.90;;;;;;;45.62;19.93;97651.14;108411;1268;22554;-79
2022/08/10 08:34:01;;;;;;;3.50;1.90;;;;;;;46.04;19.31;97654.48;108498;1268;22553;-78
2022/08/10 08:36:33;;;;;;;1.90;1.70;;;;;;;46.15;18.88;97646.77;108485;1268;22940;-78
2022/08/10 08:39:05;;;;;;;3.00;1.90;;;;;;;46.45;19.04;97646.23;108413;1268;27524;-78
2022/08/10 08:41:59;;;;;;;3.90;2.10;;;;;;;46.65;18.10;97642.42;108486;1267;22602;-79
2022/08/10 08:44:47;;;;;;;2.50;1.90;;;;;;;45.38;18.30;97640.43;108469;1268;25377;-78
2022/08/10 08:47:42;;;;;;;2.70;1.90;;;;;;;45.07;19.00;97640.80;108387;1268;22544;-78
2022/08/10 08:50:31;;;;;;;2.50;1.60;;;;;;;44.13;19.17;97631.63;108383;1267;22545;-78
2022/08/10 08:53:10;;;;;;;1.90;1.80;;;;;;;43.36;17.71;97630.65;108494;1268;22534;-78
2022/08/10 08:55:53;;;;;;;2.70;1.90;;;;;;;40.68;19.19;97630.41;108461;1268;22567;-78
2022/08/10 08:58:36;;;;;;;3.50;2.10;;;;;;;38.98;20.47;97629.10;108442;1268;29300;-77
2022/08/10 09:01:23;;;;;;;4.90;2.10;;;;;;;38.50;21.80;97627.59;108399;1265;23319;-78
2022/08/10 09:04:07;;;;;;;3.20;2.10;;;;;;;37.99;22.20;97624.66;108522;1266;22604;-78
2022/08/10 09:06:55;;;;;;;2.30;2.00;;;;;;;37.32;23.53;97630.82;108406;1267;24903;-78
2022/08/10 09:09:48;;;;;;;4.50;2.40;;;;;;;35.71;24.20;97629.77;108427;1267;23147;-78
2022/08/10 09:12:34;;;;;;;3.60;2.20;;;;;;;34.79;25.92;97631.05;108447;1267;23944;-78
2022/08/10 09:15:09;;;;;;;3.80;2.00;;;;;;;35.55;25.54;97631.95;108519;1268;22557;-77
2022/08/10 09:17:47;;;;;;;4.40;2.80;;;;;;;33.82;25.99;97625.27;108393;1267;22580;-78
2022/08/10 09:20:31;;;;;;;3.10;2.30;;;;;;;32.42;27.69;97627.98;108486;1267;22525;-78
2022/08/10 09:23:10;;;;;;;5.90;2.60;;;;;;;32.26;28.62;97625.92;108537;1268;22606;-78
2022/08/10 09:25:48;;;;;;;4.50;2.60;;;;;;;32.55;29.15;97626.85;108424;1268;22543;-78
2022/08/10 09:28:26;;;;;;;3.30;2.50;;;;;;;33.06;28.90;97619.64;108427;1267;23875;-77
2022/08/10 09:31:03;;;;;;;2.70;2.20;;;;;;;32.26;29.38;97624.11;108519;1267;22570;-78
2022/08/10 09:33:48;;;;;;;3.00;2.40;;;;;;;31.38;30.29;97619.21;108473;1268;22520;-77
2022/08/10 09:36:33;;;;;;;2.80;2.40;;;;;;;29.87;30.74;97618.00;108549;1267;24935;-77
2022/08/10 09:39:12;;;;;;;4.60;2.70;;;;;;;28.93;32.84;97623.91;108467;1267;23893;-77
2022/08/10 09:41:51;;;;;;;3.10;2.00;;;;;;;28.80;33.36;97622.49;108532;1267;23219;-77
2022/08/10 09:44:45;;;;;;;3.20;2.20;;;;;;;28.31;33.15;97620.64;108530;1268;24258;-77
2022/08/10 09:47:34;;;;;;;5.00;2.60;;;;;;;27.71;33.42;97618.79;108500;1267;23481;-78
2022/08/10 09:50:18;;;;;;;4.60;2.40;;;;;;;26.49;34.78;97617.46;108440;1267;25825;-77
2022/08/10 09:53:05;;;;;;;4.30;2.60;;;;;;;25.84;36.53;97615.37;108494;1267;22526;-77
2022/08/10 09:55:46;;;;;;;3.10;2.10;;;;;;;25.69;37.16;97613.38;108372;1267;22541;-77
2022/08/10 09:58:34;;;;;;;4.60;2.40;;;;;;;26.14;37.30;97606.73;108427;1267;30178;-77
2022/08/10 10:01:19;;;;;;;3.90;2.40;;;;;;;25.54;37.83;97605.31;108407;1268;22535;-78
2022/08/10 10:03:59;;;;;;;5.30;2.40;;;;;;;25.02;39.38;97604.09;108403;1267;22631;-78
2022/08/10 10:06:38;;;;;;;5.70;3.10;;;;;;;25.00;40.57;97604.80;108469;1268;23372;-78
2022/08/10 10:09:17;;;;;;;2.80;2.50;;;;;;;25.26;39.64;97599.45;108329;1268;24229;-77
2022/08/10 10:11:59;;;;;;;3.80;2.80;;;;;;;25.64;39.67;97597.26;108387;1267;22577;-77
2022/08/10 10:17:49;;;;;;;5.10;3.20;;;;;;;24.66;40.17;97595.89;108458;1266;22531;-77
2022/08/10 10:20:29;;;;;;;3.70;3.10;;;;;;;24.63;41.14;97589.69;108489;1267;25291;-77
2022/08/10 10:23:14;;;;;;;4.30;2.80;;;;;;;24.74;40.74;97591.30;108410;1268;22547;-77
2022/08/10 10:25:53;;;;;;;3.30;2.70;;;;;;;24.67;40.77;97586.33;108517;1268;22523;-77
2022/08/10 10:28:37;;;;;;;6.20;2.80;;;;;;;24.56;41.10;97580.75;108348;1267;24335;-77
2022/08/10 10:31:18;;;;;;;5.30;2.90;;;;;;;24.75;41.66;97586.92;108477;1267;22558;-77
2022/08/10 10:33:58;;;;;;;4.30;2.70;;;;;;;25.09;41.36;97582.58;108416;1267;22539;-78
2022/08/10 10:36:30;;;;;;;3.80;2.90;;;;;;;24.73;40.71;97582.54;108416;1267;22753;-77
2022/08/10 10:39:04;;;;;;;5.60;3.20;;;;;;;24.31;41.90;97580.04;108407;1266;25897;-77
2022/08/10 10:41:41;;;;;;;4.60;2.90;;;;;;;24.52;41.62;97580.78;108544;1267;22557;-77
2022/08/10 10:44:33;;;;;;;4.40;3.20;;;;;;;24.92;42.52;97577.02;108465;1267;22478;-77
2022/08/10 10:47:18;;;;;;;5.40;3.00;;;;;;;25.29;42.17;97573.09;108476;1266;22527;-77
2022/08/10 10:50:02;;;;;;;4.00;3.00;;;;;;;25.51;41.48;97574.39;108408;1267;36105;-76
2022/08/10 10:52:45;;;;;;;4.50;2.80;;;;;;;25.53;40.50;97578.98;108376;1267;23257;-76
2022/08/10 10:55:26;;;;;;;3.70;2.70;;;;;;;25.43;40.67;97578.91;108506;1268;22610;-77
2022/08/10 10:58:09;;;;;;;5.70;2.90;;;;;;;25.36;40.73;97576.05;108361;1267;31595;-76
2022/08/10 11:00:46;;;;;;;4.40;2.80;;;;;;;25.45;41.38;97576.33;108495;1267;22815;-76
2022/08/10 11:03:44;;;;;;;4.70;2.80;;;;;;;25.88;42.18;97571.92;108397;1267;23787;-77
2022/08/10 11:06:34;;;;;;;12.00;6.00;;;;;;;26.37;41.47;97568.07;108403;1268;22554;-77
2022/08/10 11:09:14;;;;;;;5.30;2.60;;;;;;;26.66;40.10;97567.55;108422;1267;24241;-77
2022/08/10 11:11:48;;;;;;;8.60;5.80;;;;;;;26.51;39.37;97566.48;108489;1267;22491;-77
2022/08/10 11:14:33;;;;;;;2.70;2.50;;;;;;;26.29;39.29;97566.34;108473;1267;22526;-76
2022/08/10 11:17:18;;;;;;;3.90;2.60;;;;;;;25.78;39.70;97559.80;108454;1267;23016;-77
2022/08/10 11:19:59;;;;;;;2.70;2.40;;;;;;;25.02;40.15;97556.27;108438;1268;27912;-77
2022/08/10 11:22:36;;;;;;;2.50;2.30;;;;;;;24.51;41.47;97560.77;108461;1267;25293;-77
2022/08/10 11:25:16;;;;;;;2.90;2.30;;;;;;;24.01;42.10;97552.20;108491;1267;22593;-77
2022/08/10 11:27:56;;;;;;;3.70;2.40;;;;;;;23.86;43.32;97554.70;108372;1267;33991;-77
2022/08/10 11:30:34;;;;;;;3.60;2.50;;;;;;;23.82;43.03;97556.54;108476;1268;22535;-77
2022/08/10 11:33:16;;;;;;;4.70;3.10;;;;;;;23.80;43.56;97558.34;108473;1268;22557;-76
2022/08/10 11:35:53;;;;;;;4.20;2.60;;;;;;;24.22;43.98;97554.35;108398;1267;25299;-77
2022/08/10 11:38:32;;;;;;;3.10;2.60;;;;;;;24.46;42.95;97551.83;108377;1267;23601;-76
2022/08/10 11:41:09;;;;;;;6.70;3.90;;;;;;;24.64;43.15;97554.95;108478;1268;22561;-77
2022/08/10 11:43:46;;;;;;;3.20;2.50;;;;;;;24.73;42.46;97553.64;108400;1267;22470;-77
2022/08/10 11:46:24;;;;;;;3.80;2.80;;;;;;;24.81;42.40;97552.52;108491;1268;22623;-77
2022/08/10 11:49:03;;;;;;;5.80;3.70;;;;;;;25.01;42.18;97551.11;108393;1268;32824;-77
2022/08/10 11:51:44;;;;;;;3.80;2.60;;;;;;;25.16;42.13;97543.11;108480;1267;22563;-77
2022/08/10 11:54:26;;;;;;;4.50;2.30;;;;;;;25.17;41.05;97541.98;108460;1267;22650;-77
2022/08/10 11:57:00;;;;;;;4.10;2.10;;;;;;;24.87;41.13;97542.21;108490;1266;22550;-77
2022/08/10 12:02:28;;;;;;;3.60;2.40;;;;;;;24.67;42.31;97536.05;108381;1268;23755;-77
2022/08/10 12:05:03;;;;;;;3.90;2.70;;;;;;;24.98;42.92;97537.32;108456;1267;24225;-77
2022/08/10 12:07:39;;;;;;;3.10;2.20;;;;;;;25.18;41.57;97530.20;108530;1267;24177;-77
2022/08/10 12:10:13;;;;;;;2.10;1.80;;;;;;;25.41;42.33;97528.05;108420;1268;23340;-77